Crookhaven, Ireland
Current Conditions -  °F | °C
As of 8:30 PM on Saturday 22 Nov 2014 (Local Time) from EIKY Reporting Station
Light Rain Light Rain  
Wind Chill:   Ceiling: Unl
Heat Index:   Visibility: 6mi
Dew Point:   Wind: 5mph
Humidity: 93%   Direction: 240°WSW
Pressure: 30"   Gusts: NA
Location:  51.47°N, 9.73°W
Report Text: EIKY 221930Z 24004KT 9999 -RA SCT034 04/03 Q1016 RERA
Loading
Personal Weather Stations






























Interactive Weather Map New forecast layout! Learn more

10-Day Weather Forecast

Advertisements
Track Severe Weather on mobile